This is the latest recevied weather packets stored in our database for station/object KD8OZS. If no packets are shown the sender has not sent any weather packets the latest 10 day(s).
| Time | Temp. | Humidity | Pressure | Rain* | Wind** | Luminosity | Snow |
|---|---|---|---|---|---|---|---|
| 1787610399 | 21.67° C | 67% | 1009.8 hPa | 0 mm | - | 45 W/m² | - |
| 1787610098 | 22.22° C | 69% | 1009.9 hPa | 0 mm | - | 48 W/m² | - |
| 1787609792 | 22.22° C | 66% | 1009.7 hPa | 0 mm | - | 53 W/m² | - |
| 1787609487 | 22.22° C | 65% | 1009.6 hPa | 0 mm | - | 53 W/m² | - |
| 1787609187 | 21.67° C | 66% | 1009.6 hPa | 0 mm | - | 54 W/m² | - |
| 1787608887 | 21.67° C | 67% | 1009.9 hPa | 0 mm | - | 62 W/m² | - |
| 1787608581 | 21.67° C | 67% | 1009.7 hPa | 0 mm | - | 62 W/m² | - |
| 1787608277 | 21.67° C | 67% | 1009.7 hPa | 0 mm | - | 85 W/m² | - |
| 1787607974 | 21.67° C | 67% | 1009.9 hPa | 0 mm | - | 68 W/m² | - |
| 1787607670 | 22.22° C | 67% | 1009.8 hPa | 0 mm | - | 75 W/m² | - |
| 1787607367 | 22.78° C | 65% | 1009.6 hPa | 0 mm | - | 95 W/m² | - |
| 1787607064 | 23.33° C | 63% | 1009.8 hPa | 0 mm | - | 129 W/m² | - |
| 1787606762 | 23.89° C | 62% | 1009.5 hPa | 0 mm | - | 270 W/m² | - |
| 1787606456 | 23.89° C | 60% | 1009.7 hPa | 0 mm | - | 328 W/m² | - |
| 1787606150 | 22.78° C | 65% | 1009.8 hPa | 0 mm | - | 308 W/m² | - |
| 1787605844 | 23.33° C | 62% | 1009.7 hPa | 0 mm | - | 72 W/m² | - |
| 1787605543 | 23.33° C | 63% | 1009.8 hPa | 0 mm | - | 356 W/m² | - |
| 1787605239 | 22.78° C | 62% | 1009.8 hPa | 0 mm | - | 421 W/m² | - |
| 1787604939 | 22.78° C | 64% | 1009.8 hPa | 0 mm | - | 386 W/m² | - |
| 1787604639 | 22.22° C | 64% | 1009.9 hPa | 0 mm | - | 138 W/m² | - |
| 1787604338 | 22.78° C | 66% | 1009.8 hPa | 0 mm | - | 290 W/m² | - |
| 1787604033 | 23.89° C | 62% | 1009.7 hPa | 0 mm | - | 165 W/m² | - |
| 1787603733 | 23.89° C | 60% | 1009.8 hPa | 0 mm | - | 468 W/m² | - |
| 1787603428 | 23.89° C | 60% | 1009.8 hPa | 0 mm | - | 252 W/m² | - |
| 1787603125 | 23.89° C | 60% | 1009.8 hPa | 0 mm | - | 497 W/m² | - |
* Rain latest hour (hover to see other rain measurements)
** Current wind speed in m/s (hover to see current wind gust speed)